sensor_id;sensor_type;location;lat;lon;timestamp;temperature;humidity
42201;DHT22;27869;51.442;7.540;2023-05-07T00:01:41;13.60;99.90
42201;DHT22;27869;51.442;7.540;2023-05-07T00:04:09;13.60;99.90
42201;DHT22;27869;51.442;7.540;2023-05-07T00:06:36;13.60;99.90
42201;DHT22;27869;51.442;7.540;2023-05-07T00:09:03;13.60;99.90
42201;DHT22;27869;51.442;7.540;2023-05-07T00:11:31;13.60;99.90
42201;DHT22;27869;51.442;7.540;2023-05-07T00:13:57;13.60;99.90
42201;DHT22;27869;51.442;7.540;2023-05-07T00:16:24;13.60;99.90
42201;DHT22;27869;51.442;7.540;2023-05-07T00:18:52;13.50;99.90
42201;DHT22;27869;51.442;7.540;2023-05-07T00:21:20;13.50;99.90
42201;DHT22;27869;51.442;7.540;2023-05-07T00:23:47;13.60;99.90
42201;DHT22;27869;51.442;7.540;2023-05-07T00:26:14;13.50;99.90
42201;DHT22;27869;51.442;7.540;2023-05-07T00:28:41;13.50;99.90
42201;DHT22;27869;51.442;7.540;2023-05-07T00:31:08;13.50;99.90
42201;DHT22;27869;51.442;7.540;2023-05-07T00:33:35;13.50;99.90
42201;DHT22;27869;51.442;7.540;2023-05-07T00:36:02;13.50;99.90
42201;DHT22;27869;51.442;7.540;2023-05-07T00:38:31;13.50;99.90
42201;DHT22;27869;51.442;7.540;2023-05-07T00:40:58;13.50;99.90
42201;DHT22;27869;51.442;7.540;2023-05-07T00:43:25;13.50;99.90
42201;DHT22;27869;51.442;7.540;2023-05-07T00:45:53;13.50;99.90
42201;DHT22;27869;51.442;7.540;2023-05-07T00:48:20;13.50;99.90
42201;DHT22;27869;51.442;7.540;2023-05-07T00:50:47;13.50;99.90
42201;DHT22;27869;51.442;7.540;2023-05-07T00:53:14;13.50;99.90
42201;DHT22;27869;51.442;7.540;2023-05-07T00:55:42;13.50;99.90
42201;DHT22;27869;51.442;7.540;2023-05-07T00:58:10;13.50;99.90
42201;DHT22;27869;51.442;7.540;2023-05-07T01:00:36;13.50;99.90
42201;DHT22;27869;51.442;7.540;2023-05-07T01:03:03;13.50;99.90
42201;DHT22;27869;51.442;7.540;2023-05-07T01:05:31;13.50;99.90
42201;DHT22;27869;51.442;7.540;2023-05-07T01:07:58;13.50;99.90
42201;DHT22;27869;51.442;7.540;2023-05-07T01:10:26;13.50;99.90
42201;DHT22;27869;51.442;7.540;2023-05-07T01:12:54;13.50;99.90
42201;DHT22;27869;51.442;7.540;2023-05-07T01:15:21;13.50;99.90
42201;DHT22;27869;51.442;7.540;2023-05-07T01:17:48;13.50;99.90
42201;DHT22;27869;51.442;7.540;2023-05-07T01:20:15;13.50;99.90
42201;DHT22;27869;51.442;7.540;2023-05-07T01:22:44;13.50;99.90
42201;DHT22;27869;51.442;7.540;2023-05-07T01:25:11;13.50;99.90
42201;DHT22;27869;51.442;7.540;2023-05-07T01:27:39;13.50;99.90
42201;DHT22;27869;51.442;7.540;2023-05-07T01:30:07;13.50;99.90
42201;DHT22;27869;51.442;7.540;2023-05-07T01:32:40;13.40;99.90
42201;DHT22;27869;51.442;7.540;2023-05-07T01:35:11;13.50;99.90
42201;DHT22;27869;51.442;7.540;2023-05-07T01:37:39;13.50;99.90
42201;DHT22;27869;51.442;7.540;2023-05-07T01:40:08;13.50;99.90
42201;DHT22;27869;51.442;7.540;2023-05-07T01:42:35;13.50;99.90
42201;DHT22;27869;51.442;7.540;2023-05-07T01:45:02;13.50;99.90
42201;DHT22;27869;51.442;7.540;2023-05-07T01:47:30;13.50;99.90
42201;DHT22;27869;51.442;7.540;2023-05-07T01:49:57;13.50;99.90
42201;DHT22;27869;51.442;7.540;2023-05-07T01:52:24;13.50;99.90
42201;DHT22;27869;51.442;7.540;2023-05-07T01:54:51;13.40;99.90
42201;DHT22;27869;51.442;7.540;2023-05-07T01:57:19;13.40;99.90
42201;DHT22;27869;51.442;7.540;2023-05-07T01:59:46;13.40;99.90
42201;DHT22;27869;51.442;7.540;2023-05-07T02:02:13;13.40;99.90
42201;DHT22;27869;51.442;7.540;2023-05-07T02:04:40;13.40;99.90
42201;DHT22;27869;51.442;7.540;2023-05-07T02:07:07;13.40;99.90
42201;DHT22;27869;51.442;7.540;2023-05-07T02:09:34;13.40;99.90
42201;DHT22;27869;51.442;7.540;2023-05-07T02:12:01;13.40;99.90
42201;DHT22;27869;51.442;7.540;2023-05-07T02:14:29;13.40;99.90
42201;DHT22;27869;51.442;7.540;2023-05-07T02:16:56;13.40;99.90
42201;DHT22;27869;51.442;7.540;2023-05-07T02:19:23;13.30;99.90
42201;DHT22;27869;51.442;7.540;2023-05-07T02:21:50;13.30;99.90
42201;DHT22;27869;51.442;7.540;2023-05-07T02:24:17;13.30;99.90
42201;DHT22;27869;51.442;7.540;2023-05-07T02:26:44;13.30;99.90
42201;DHT22;27869;51.442;7.540;2023-05-07T02:29:11;13.30;99.90
42201;DHT22;27869;51.442;7.540;2023-05-07T02:31:42;13.30;99.90
42201;DHT22;27869;51.442;7.540;2023-05-07T02:34:09;13.30;99.90
42201;DHT22;27869;51.442;7.540;2023-05-07T02:36:36;13.30;99.90
42201;DHT22;27869;51.442;7.540;2023-05-07T02:39:03;13.20;99.90
42201;DHT22;27869;51.442;7.540;2023-05-07T02:41:30;13.20;99.90
42201;DHT22;27869;51.442;7.540;2023-05-07T02:43:57;13.20;99.90
42201;DHT22;27869;51.442;7.540;2023-05-07T02:46:24;13.20;99.90
42201;DHT22;27869;51.442;7.540;2023-05-07T02:48:52;13.20;99.90
42201;DHT22;27869;51.442;7.540;2023-05-07T02:51:20;13.10;99.90
42201;DHT22;27869;51.442;7.540;2023-05-07T02:53:48;13.10;99.90
42201;DHT22;27869;51.442;7.540;2023-05-07T02:56:15;13.10;99.90
42201;DHT22;27869;51.442;7.540;2023-05-07T02:58:42;13.00;99.90
42201;DHT22;27869;51.442;7.540;2023-05-07T03:01:09;13.00;99.90
42201;DHT22;27869;51.442;7.540;2023-05-07T03:03:36;13.00;99.90
42201;DHT22;27869;51.442;7.540;2023-05-07T03:06:05;13.00;99.90
42201;DHT22;27869;51.442;7.540;2023-05-07T03:08:32;12.90;99.90
42201;DHT22;27869;51.442;7.540;2023-05-07T03:10:58;12.90;99.90
42201;DHT22;27869;51.442;7.540;2023-05-07T03:13:25;12.90;99.90
42201;DHT22;27869;51.442;7.540;2023-05-07T03:15:52;12.90;99.90
42201;DHT22;27869;51.442;7.540;2023-05-07T03:18:19;12.90;99.90
42201;DHT22;27869;51.442;7.540;2023-05-07T03:20:48;12.80;99.90
42201;DHT22;27869;51.442;7.540;2023-05-07T03:23:16;12.80;99.90
42201;DHT22;27869;51.442;7.540;2023-05-07T03:25:43;12.80;99.90
42201;DHT22;27869;51.442;7.540;2023-05-07T03:28:10;12.80;99.90
42201;DHT22;27869;51.442;7.540;2023-05-07T03:30:37;12.80;99.90
42201;DHT22;27869;51.442;7.540;2023-05-07T03:33:04;12.80;99.90
42201;DHT22;27869;51.442;7.540;2023-05-07T03:35:31;12.80;99.90
42201;DHT22;27869;51.442;7.540;2023-05-07T03:37:57;12.80;99.90
42201;DHT22;27869;51.442;7.540;2023-05-07T03:40:26;12.70;99.90
42201;DHT22;27869;51.442;7.540;2023-05-07T03:42:52;12.70;99.90
42201;DHT22;27869;51.442;7.540;2023-05-07T03:45:19;12.70;99.90
42201;DHT22;27869;51.442;7.540;2023-05-07T03:47:46;12.70;99.90
42201;DHT22;27869;51.442;7.540;2023-05-07T03:50:13;12.70;99.90
42201;DHT22;27869;51.442;7.540;2023-05-07T03:52:40;12.70;99.90
42201;DHT22;27869;51.442;7.540;2023-05-07T03:55:08;12.70;99.90
42201;DHT22;27869;51.442;7.540;2023-05-07T03:57:36;12.70;99.90
42201;DHT22;27869;51.442;7.540;2023-05-07T04:00:04;12.70;99.90
42201;DHT22;27869;51.442;7.540;2023-05-07T04:02:33;12.70;99.90
42201;DHT22;27869;51.442;7.540;2023-05-07T04:04:59;12.70;99.90
42201;DHT22;27869;51.442;7.540;2023-05-07T04:07:26;12.70;99.90
42201;DHT22;27869;51.442;7.540;2023-05-07T04:09:53;12.60;99.90
42201;DHT22;27869;51.442;7.540;2023-05-07T04:12:20;12.60;99.90
42201;DHT22;27869;51.442;7.540;2023-05-07T04:14:48;12.60;99.90
42201;DHT22;27869;51.442;7.540;2023-05-07T04:17:15;12.60;99.90
42201;DHT22;27869;51.442;7.540;2023-05-07T04:19:42;12.60;99.90
42201;DHT22;27869;51.442;7.540;2023-05-07T04:22:10;12.60;99.90
42201;DHT22;27869;51.442;7.540;2023-05-07T04:24:37;12.60;99.90
42201;DHT22;27869;51.442;7.540;2023-05-07T04:27:04;12.60;99.90
42201;DHT22;27869;51.442;7.540;2023-05-07T04:29:32;12.60;99.90
42201;DHT22;27869;51.442;7.540;2023-05-07T04:32:00;12.60;99.90
42201;DHT22;27869;51.442;7.540;2023-05-07T04:34:27;12.70;99.90
42201;DHT22;27869;51.442;7.540;2023-05-07T04:36:53;12.60;99.90
42201;DHT22;27869;51.442;7.540;2023-05-07T04:39:20;12.70;99.90
42201;DHT22;27869;51.442;7.540;2023-05-07T04:41:47;12.60;99.90
42201;DHT22;27869;51.442;7.540;2023-05-07T04:44:14;12.60;99.90
42201;DHT22;27869;51.442;7.540;2023-05-07T04:46:42;12.70;99.90
42201;DHT22;27869;51.442;7.540;2023-05-07T04:49:10;12.70;99.90
42201;DHT22;27869;51.442;7.540;2023-05-07T04:51:37;12.70;99.90
42201;DHT22;27869;51.442;7.540;2023-05-07T04:54:04;12.70;99.90
42201;DHT22;27869;51.442;7.540;2023-05-07T04:56:31;12.70;99.90
42201;DHT22;27869;51.442;7.540;2023-05-07T04:58:57;12.80;99.90
42201;DHT22;27869;51.442;7.540;2023-05-07T05:01:24;12.80;99.90
42201;DHT22;27869;51.442;7.540;2023-05-07T05:03:51;12.80;99.90
42201;DHT22;27869;51.442;7.540;2023-05-07T05:06:19;12.80;99.90
42201;DHT22;27869;51.442;7.540;2023-05-07T05:08:46;12.80;99.90
42201;DHT22;27869;51.442;7.540;2023-05-07T05:11:13;12.90;99.90
42201;DHT22;27869;51.442;7.540;2023-05-07T05:13:40;12.90;99.90
42201;DHT22;27869;51.442;7.540;2023-05-07T05:16:07;13.00;99.90
42201;DHT22;27869;51.442;7.540;2023-05-07T05:18:34;13.00;99.90
42201;DHT22;27869;51.442;7.540;2023-05-07T05:21:01;13.10;99.90
42201;DHT22;27869;51.442;7.540;2023-05-07T05:23:29;13.10;99.90
42201;DHT22;27869;51.442;7.540;2023-05-07T05:25:56;13.20;99.90
42201;DHT22;27869;51.442;7.540;2023-05-07T05:28:24;13.20;99.90
42201;DHT22;27869;51.442;7.540;2023-05-07T05:30:51;13.30;99.90
42201;DHT22;27869;51.442;7.540;2023-05-07T05:33:18;13.30;99.90
42201;DHT22;27869;51.442;7.540;2023-05-07T05:35:45;13.30;99.90
42201;DHT22;27869;51.442;7.540;2023-05-07T05:38:11;13.30;99.90
42201;DHT22;27869;51.442;7.540;2023-05-07T05:40:40;13.40;99.90
42201;DHT22;27869;51.442;7.540;2023-05-07T05:43:07;13.40;99.90
42201;DHT22;27869;51.442;7.540;2023-05-07T05:45:33;13.50;99.90
42201;DHT22;27869;51.442;7.540;2023-05-07T05:48:00;13.50;99.90
42201;DHT22;27869;51.442;7.540;2023-05-07T05:50:27;13.60;99.90
42201;DHT22;27869;51.442;7.540;2023-05-07T05:52:54;13.60;99.90
42201;DHT22;27869;51.442;7.540;2023-05-07T05:55:21;13.70;99.90
42201;DHT22;27869;51.442;7.540;2023-05-07T05:57:50;13.70;99.90
42201;DHT22;27869;51.442;7.540;2023-05-07T06:00:17;13.70;99.90
42201;DHT22;27869;51.442;7.540;2023-05-07T06:02:44;13.80;99.90
42201;DHT22;27869;51.442;7.540;2023-05-07T06:05:11;13.90;99.90
42201;DHT22;27869;51.442;7.540;2023-05-07T06:07:38;13.90;99.90
42201;DHT22;27869;51.442;7.540;2023-05-07T06:10:06;14.00;99.90
42201;DHT22;27869;51.442;7.540;2023-05-07T06:12:33;14.00;99.90
42201;DHT22;27869;51.442;7.540;2023-05-07T06:15:01;14.00;99.90
42201;DHT22;27869;51.442;7.540;2023-05-07T06:17:28;14.10;99.90
42201;DHT22;27869;51.442;7.540;2023-05-07T06:19:55;14.10;99.90
42201;DHT22;27869;51.442;7.540;2023-05-07T06:22:22;14.20;99.90
42201;DHT22;27869;51.442;7.540;2023-05-07T06:24:49;14.30;99.90
42201;DHT22;27869;51.442;7.540;2023-05-07T06:27:16;14.40;99.90
42201;DHT22;27869;51.442;7.540;2023-05-07T06:29:43;14.50;99.90
42201;DHT22;27869;51.442;7.540;2023-05-07T06:32:13;14.60;99.90
42201;DHT22;27869;51.442;7.540;2023-05-07T06:34:40;14.70;99.90
42201;DHT22;27869;51.442;7.540;2023-05-07T06:37:07;14.80;99.90
42201;DHT22;27869;51.442;7.540;2023-05-07T06:39:34;14.90;99.90
42201;DHT22;27869;51.442;7.540;2023-05-07T06:42:01;14.90;99.90
42201;DHT22;27869;51.442;7.540;2023-05-07T06:44:30;15.00;99.90
42201;DHT22;27869;51.442;7.540;2023-05-07T06:46:57;15.00;99.90
42201;DHT22;27869;51.442;7.540;2023-05-07T06:49:25;15.00;99.90
42201;DHT22;27869;51.442;7.540;2023-05-07T06:51:52;15.10;99.90
42201;DHT22;27869;51.442;7.540;2023-05-07T06:54:19;15.10;99.90
42201;DHT22;27869;51.442;7.540;2023-05-07T06:56:45;15.10;99.90
42201;DHT22;27869;51.442;7.540;2023-05-07T06:59:12;15.20;99.90
42201;DHT22;27869;51.442;7.540;2023-05-07T07:01:39;15.20;99.90
42201;DHT22;27869;51.442;7.540;2023-05-07T07:04:06;15.20;99.90
42201;DHT22;27869;51.442;7.540;2023-05-07T07:06:34;15.30;99.90
42201;DHT22;27869;51.442;7.540;2023-05-07T07:09:01;15.30;99.90
42201;DHT22;27869;51.442;7.540;2023-05-07T07:11:28;15.40;99.90
42201;DHT22;27869;51.442;7.540;2023-05-07T07:13:55;15.50;99.90
42201;DHT22;27869;51.442;7.540;2023-05-07T07:16:22;15.50;99.90
42201;DHT22;27869;51.442;7.540;2023-05-07T07:18:49;15.60;99.90
42201;DHT22;27869;51.442;7.540;2023-05-07T07:21:16;15.60;99.90
42201;DHT22;27869;51.442;7.540;2023-05-07T07:23:45;15.70;99.90
42201;DHT22;27869;51.442;7.540;2023-05-07T07:26:12;15.80;99.90
42201;DHT22;27869;51.442;7.540;2023-05-07T07:28:43;15.80;99.90
42201;DHT22;27869;51.442;7.540;2023-05-07T07:31:10;15.80;99.90
42201;DHT22;27869;51.442;7.540;2023-05-07T07:33:37;15.90;99.90
42201;DHT22;27869;51.442;7.540;2023-05-07T07:36:05;16.00;99.90
42201;DHT22;27869;51.442;7.540;2023-05-07T07:38:32;16.00;99.90
42201;DHT22;27869;51.442;7.540;2023-05-07T07:41:00;16.10;99.90
42201;DHT22;27869;51.442;7.540;2023-05-07T07:43:27;16.10;99.90
42201;DHT22;27869;51.442;7.540;2023-05-07T07:45:55;16.20;99.90
42201;DHT22;27869;51.442;7.540;2023-05-07T07:48:22;16.20;99.90
42201;DHT22;27869;51.442;7.540;2023-05-07T07:50:49;16.30;99.90
42201;DHT22;27869;51.442;7.540;2023-05-07T07:53:16;16.30;99.90
42201;DHT22;27869;51.442;7.540;2023-05-07T07:55:44;16.40;99.90
42201;DHT22;27869;51.442;7.540;2023-05-07T07:58:12;16.50;99.90
42201;DHT22;27869;51.442;7.540;2023-05-07T08:00:39;16.50;99.90
42201;DHT22;27869;51.442;7.540;2023-05-07T08:03:09;16.60;99.90
42201;DHT22;27869;51.442;7.540;2023-05-07T08:05:36;16.60;99.90
42201;DHT22;27869;51.442;7.540;2023-05-07T08:08:04;16.60;99.90
42201;DHT22;27869;51.442;7.540;2023-05-07T08:10:31;16.70;99.90
42201;DHT22;27869;51.442;7.540;2023-05-07T08:13:00;16.70;99.90
42201;DHT22;27869;51.442;7.540;2023-05-07T08:15:28;16.70;99.90
42201;DHT22;27869;51.442;7.540;2023-05-07T08:17:55;16.80;99.90
42201;DHT22;27869;51.442;7.540;2023-05-07T08:20:23;16.80;99.90
42201;DHT22;27869;51.442;7.540;2023-05-07T08:22:49;16.80;99.90
42201;DHT22;27869;51.442;7.540;2023-05-07T08:25:17;16.80;99.90
42201;DHT22;27869;51.442;7.540;2023-05-07T08:27:44;16.90;99.90
42201;DHT22;27869;51.442;7.540;2023-05-07T08:30:12;16.90;99.90
42201;DHT22;27869;51.442;7.540;2023-05-07T08:32:41;17.00;99.90
42201;DHT22;27869;51.442;7.540;2023-05-07T08:35:08;17.00;99.90
42201;DHT22;27869;51.442;7.540;2023-05-07T08:37:35;17.00;99.90
42201;DHT22;27869;51.442;7.540;2023-05-07T08:40:03;17.10;99.90
42201;DHT22;27869;51.442;7.540;2023-05-07T08:42:31;17.20;99.90
42201;DHT22;27869;51.442;7.540;2023-05-07T08:45:03;17.20;99.90
42201;DHT22;27869;51.442;7.540;2023-05-07T08:47:38;17.30;99.90
42201;DHT22;27869;51.442;7.540;2023-05-07T08:50:08;17.40;99.90
42201;DHT22;27869;51.442;7.540;2023-05-07T08:52:35;17.50;99.90
42201;DHT22;27869;51.442;7.540;2023-05-07T08:55:03;17.60;99.90
42201;DHT22;27869;51.442;7.540;2023-05-07T08:57:30;17.70;99.90
42201;DHT22;27869;51.442;7.540;2023-05-07T08:59:57;17.80;99.90
42201;DHT22;27869;51.442;7.540;2023-05-07T09:02:24;17.90;99.90
42201;DHT22;27869;51.442;7.540;2023-05-07T09:04:51;18.00;99.90
42201;DHT22;27869;51.442;7.540;2023-05-07T09:07:20;18.10;99.90
42201;DHT22;27869;51.442;7.540;2023-05-07T09:09:47;18.20;99.90
42201;DHT22;27869;51.442;7.540;2023-05-07T09:12:14;18.30;99.90
42201;DHT22;27869;51.442;7.540;2023-05-07T09:14:41;18.40;99.90
42201;DHT22;27869;51.442;7.540;2023-05-07T09:17:08;18.40;99.90
42201;DHT22;27869;51.442;7.540;2023-05-07T09:19:35;18.50;99.90
42201;DHT22;27869;51.442;7.540;2023-05-07T09:22:03;18.60;99.90
42201;DHT22;27869;51.442;7.540;2023-05-07T09:24:32;18.60;99.90
42201;DHT22;27869;51.442;7.540;2023-05-07T09:27:02;18.70;99.90
42201;DHT22;27869;51.442;7.540;2023-05-07T09:29:29;18.90;99.90
42201;DHT22;27869;51.442;7.540;2023-05-07T09:32:01;19.10;99.90
42201;DHT22;27869;51.442;7.540;2023-05-07T09:34:28;19.20;99.90
42201;DHT22;27869;51.442;7.540;2023-05-07T09:36:59;19.40;99.90
42201;DHT22;27869;51.442;7.540;2023-05-07T09:39:40;19.50;99.90
42201;DHT22;27869;51.442;7.540;2023-05-07T09:42:07;19.60;99.90
42201;DHT22;27869;51.442;7.540;2023-05-07T09:44:34;19.80;99.90
42201;DHT22;27869;51.442;7.540;2023-05-07T09:47:02;19.90;99.90
42201;DHT22;27869;51.442;7.540;2023-05-07T09:49:34;20.00;99.90
42201;DHT22;27869;51.442;7.540;2023-05-07T09:52:03;20.10;99.90
42201;DHT22;27869;51.442;7.540;2023-05-07T09:54:31;20.30;99.90
42201;DHT22;27869;51.442;7.540;2023-05-07T09:57:01;20.40;99.90
42201;DHT22;27869;51.442;7.540;2023-05-07T09:59:30;20.50;99.90
42201;DHT22;27869;51.442;7.540;2023-05-07T10:01:58;20.40;99.90
42201;DHT22;27869;51.442;7.540;2023-05-07T10:04:26;20.40;99.90
42201;DHT22;27869;51.442;7.540;2023-05-07T10:06:54;20.50;99.90
42201;DHT22;27869;51.442;7.540;2023-05-07T10:09:21;20.60;99.90
42201;DHT22;27869;51.442;7.540;2023-05-07T10:11:49;20.70;99.90
42201;DHT22;27869;51.442;7.540;2023-05-07T10:14:20;20.80;99.90
42201;DHT22;27869;51.442;7.540;2023-05-07T10:16:48;20.80;99.90
42201;DHT22;27869;51.442;7.540;2023-05-07T10:19:15;20.80;99.90
42201;DHT22;27869;51.442;7.540;2023-05-07T10:21:47;20.80;99.90
42201;DHT22;27869;51.442;7.540;2023-05-07T10:24:20;20.90;99.90
42201;DHT22;27869;51.442;7.540;2023-05-07T10:26:49;20.90;99.90
42201;DHT22;27869;51.442;7.540;2023-05-07T10:29:38;20.90;99.90
42201;DHT22;27869;51.442;7.540;2023-05-07T10:32:30;20.90;99.90
42201;DHT22;27869;51.442;7.540;2023-05-07T10:35:03;20.80;99.90
42201;DHT22;27869;51.442;7.540;2023-05-07T10:37:31;20.70;99.90
42201;DHT22;27869;51.442;7.540;2023-05-07T10:39:58;20.80;99.90
42201;DHT22;27869;51.442;7.540;2023-05-07T10:42:25;20.80;99.90
42201;DHT22;27869;51.442;7.540;2023-05-07T10:44:54;20.80;99.90
42201;DHT22;27869;51.442;7.540;2023-05-07T10:47:21;20.80;99.90
42201;DHT22;27869;51.442;7.540;2023-05-07T10:53:20;20.90;99.90
42201;DHT22;27869;51.442;7.540;2023-05-07T10:55:51;20.90;99.90
42201;DHT22;27869;51.442;7.540;2023-05-07T10:58:26;21.00;99.90
42201;DHT22;27869;51.442;7.540;2023-05-07T11:00:58;21.10;99.90
42201;DHT22;27869;51.442;7.540;2023-05-07T11:03:25;21.10;99.90
42201;DHT22;27869;51.442;7.540;2023-05-07T11:06:09;21.20;99.90
42201;DHT22;27869;51.442;7.540;2023-05-07T11:08:56;21.20;99.90
42201;DHT22;27869;51.442;7.540;2023-05-07T11:11:50;21.20;99.90
42201;DHT22;27869;51.442;7.540;2023-05-07T11:14:44;21.30;99.90
42201;DHT22;27869;51.442;7.540;2023-05-07T11:17:12;21.40;99.90
42201;DHT22;27869;51.442;7.540;2023-05-07T11:19:49;21.50;99.90
42201;DHT22;27869;51.442;7.540;2023-05-07T11:22:36;21.60;99.90
42201;DHT22;27869;51.442;7.540;2023-05-07T11:25:06;21.60;99.90
42201;DHT22;27869;51.442;7.540;2023-05-07T11:27:34;21.70;99.90
42201;DHT22;27869;51.442;7.540;2023-05-07T11:30:01;21.80;99.90
42201;DHT22;27869;51.442;7.540;2023-05-07T11:32:31;21.80;99.90
42201;DHT22;27869;51.442;7.540;2023-05-07T11:34:59;21.80;99.90
42201;DHT22;27869;51.442;7.540;2023-05-07T11:37:28;21.80;99.90
42201;DHT22;27869;51.442;7.540;2023-05-07T11:40:03;21.80;99.90
42201;DHT22;27869;51.442;7.540;2023-05-07T11:42:32;21.80;99.90
42201;DHT22;27869;51.442;7.540;2023-05-07T11:44:59;21.80;99.90
42201;DHT22;27869;51.442;7.540;2023-05-07T11:47:31;21.90;99.90
42201;DHT22;27869;51.442;7.540;2023-05-07T11:50:03;21.90;99.90
42201;DHT22;27869;51.442;7.540;2023-05-07T11:52:30;21.90;99.90
42201;DHT22;27869;51.442;7.540;2023-05-07T11:54:58;22.00;99.90
42201;DHT22;27869;51.442;7.540;2023-05-07T11:57:26;21.90;99.90
42201;DHT22;27869;51.442;7.540;2023-05-07T11:59:54;21.90;99.90
42201;DHT22;27869;51.442;7.540;2023-05-07T12:02:21;21.90;99.90
42201;DHT22;27869;51.442;7.540;2023-05-07T12:04:51;21.90;99.90
42201;DHT22;27869;51.442;7.540;2023-05-07T12:07:18;21.80;99.90
42201;DHT22;27869;51.442;7.540;2023-05-07T12:09:46;21.80;99.90
42201;DHT22;27869;51.442;7.540;2023-05-07T12:12:13;21.80;99.90
42201;DHT22;27869;51.442;7.540;2023-05-07T12:14:41;21.70;99.90
42201;DHT22;27869;51.442;7.540;2023-05-07T12:17:09;21.70;99.90
42201;DHT22;27869;51.442;7.540;2023-05-07T12:19:37;21.60;99.90
42201;DHT22;27869;51.442;7.540;2023-05-07T12:22:07;21.60;99.90
42201;DHT22;27869;51.442;7.540;2023-05-07T12:24:43;21.50;99.90
42201;DHT22;27869;51.442;7.540;2023-05-07T12:27:10;21.40;99.90
42201;DHT22;27869;51.442;7.540;2023-05-07T12:29:37;21.50;99.90
42201;DHT22;27869;51.442;7.540;2023-05-07T12:32:06;21.50;99.90
42201;DHT22;27869;51.442;7.540;2023-05-07T12:34:33;21.50;99.90
42201;DHT22;27869;51.442;7.540;2023-05-07T12:37:02;21.60;99.90
42201;DHT22;27869;51.442;7.540;2023-05-07T12:39:31;21.60;99.90
42201;DHT22;27869;51.442;7.540;2023-05-07T12:41:59;21.60;99.90
42201;DHT22;27869;51.442;7.540;2023-05-07T12:44:29;21.50;99.90
42201;DHT22;27869;51.442;7.540;2023-05-07T12:46:57;21.50;99.90
42201;DHT22;27869;51.442;7.540;2023-05-07T12:49:24;21.40;99.90
42201;DHT22;27869;51.442;7.540;2023-05-07T12:51:51;21.40;99.90
42201;DHT22;27869;51.442;7.540;2023-05-07T12:54:28;21.30;99.90
42201;DHT22;27869;51.442;7.540;2023-05-07T12:57:02;21.30;99.90
42201;DHT22;27869;51.442;7.540;2023-05-07T12:59:33;21.30;99.90
42201;DHT22;27869;51.442;7.540;2023-05-07T13:02:00;21.40;99.90
42201;DHT22;27869;51.442;7.540;2023-05-07T13:04:27;21.30;99.90
42201;DHT22;27869;51.442;7.540;2023-05-07T13:06:55;21.40;99.90
42201;DHT22;27869;51.442;7.540;2023-05-07T13:09:22;21.30;99.90
42201;DHT22;27869;51.442;7.540;2023-05-07T13:11:49;21.20;99.90
42201;DHT22;27869;51.442;7.540;2023-05-07T13:14:17;21.20;99.90
42201;DHT22;27869;51.442;7.540;2023-05-07T13:16:46;21.20;99.90
42201;DHT22;27869;51.442;7.540;2023-05-07T13:19:13;21.10;99.90
42201;DHT22;27869;51.442;7.540;2023-05-07T13:21:40;21.10;99.90
42201;DHT22;27869;51.442;7.540;2023-05-07T13:24:07;21.00;99.90
42201;DHT22;27869;51.442;7.540;2023-05-07T13:26:34;20.90;99.90
42201;DHT22;27869;51.442;7.540;2023-05-07T13:29:01;20.90;99.90
42201;DHT22;27869;51.442;7.540;2023-05-07T13:31:30;20.90;99.90
42201;DHT22;27869;51.442;7.540;2023-05-07T13:33:57;20.80;99.90
42201;DHT22;27869;51.442;7.540;2023-05-07T13:36:23;20.80;99.90
42201;DHT22;27869;51.442;7.540;2023-05-07T13:38:50;20.80;99.90
42201;DHT22;27869;51.442;7.540;2023-05-07T13:41:18;20.70;99.90
42201;DHT22;27869;51.442;7.540;2023-05-07T13:43:45;20.70;99.90
42201;DHT22;27869;51.442;7.540;2023-05-07T13:46:12;20.60;99.90
42201;DHT22;27869;51.442;7.540;2023-05-07T13:48:40;20.60;99.90
42201;DHT22;27869;51.442;7.540;2023-05-07T13:51:07;20.60;99.90
42201;DHT22;27869;51.442;7.540;2023-05-07T13:53:34;20.50;99.90
42201;DHT22;27869;51.442;7.540;2023-05-07T13:56:04;20.50;99.90
42201;DHT22;27869;51.442;7.540;2023-05-07T13:58:31;20.50;99.90
42201;DHT22;27869;51.442;7.540;2023-05-07T14:00:58;20.40;99.90
42201;DHT22;27869;51.442;7.540;2023-05-07T14:03:25;20.40;99.90
42201;DHT22;27869;51.442;7.540;2023-05-07T14:05:55;20.40;99.90
42201;DHT22;27869;51.442;7.540;2023-05-07T14:08:24;20.40;99.90
42201;DHT22;27869;51.442;7.540;2023-05-07T14:10:53;20.30;99.90
42201;DHT22;27869;51.442;7.540;2023-05-07T14:13:22;20.30;99.90
42201;DHT22;27869;51.442;7.540;2023-05-07T14:15:49;20.30;99.90
42201;DHT22;27869;51.442;7.540;2023-05-07T14:18:16;20.40;99.90
42201;DHT22;27869;51.442;7.540;2023-05-07T14:20:43;20.30;99.90
42201;DHT22;27869;51.442;7.540;2023-05-07T14:23:13;20.30;99.90
42201;DHT22;27869;51.442;7.540;2023-05-07T14:25:40;20.30;99.90
42201;DHT22;27869;51.442;7.540;2023-05-07T14:28:09;20.20;99.90
42201;DHT22;27869;51.442;7.540;2023-05-07T14:30:36;20.20;99.90
42201;DHT22;27869;51.442;7.540;2023-05-07T14:33:02;20.10;99.90
42201;DHT22;27869;51.442;7.540;2023-05-07T14:35:29;20.10;99.90
42201;DHT22;27869;51.442;7.540;2023-05-07T14:37:56;20.00;99.90
42201;DHT22;27869;51.442;7.540;2023-05-07T14:40:25;19.90;99.90
42201;DHT22;27869;51.442;7.540;2023-05-07T14:42:51;19.90;99.90
42201;DHT22;27869;51.442;7.540;2023-05-07T14:45:20;19.80;99.90
42201;DHT22;27869;51.442;7.540;2023-05-07T14:47:47;19.80;99.90
42201;DHT22;27869;51.442;7.540;2023-05-07T14:50:14;19.80;99.90
42201;DHT22;27869;51.442;7.540;2023-05-07T14:52:41;19.70;99.90
42201;DHT22;27869;51.442;7.540;2023-05-07T14:55:08;19.70;99.90
42201;DHT22;27869;51.442;7.540;2023-05-07T14:57:36;19.60;99.90
42201;DHT22;27869;51.442;7.540;2023-05-07T15:00:05;19.60;99.90
42201;DHT22;27869;51.442;7.540;2023-05-07T15:02:32;19.60;99.90
42201;DHT22;27869;51.442;7.540;2023-05-07T15:04:59;19.50;99.90
42201;DHT22;27869;51.442;7.540;2023-05-07T15:07:26;19.50;99.90
42201;DHT22;27869;51.442;7.540;2023-05-07T15:09:54;19.40;99.90
42201;DHT22;27869;51.442;7.540;2023-05-07T15:12:21;19.40;99.90
42201;DHT22;27869;51.442;7.540;2023-05-07T15:14:49;19.30;99.90
42201;DHT22;27869;51.442;7.540;2023-05-07T15:17:16;19.30;99.90
42201;DHT22;27869;51.442;7.540;2023-05-07T15:19:43;19.20;99.90
42201;DHT22;27869;51.442;7.540;2023-05-07T15:22:10;19.20;99.90
42201;DHT22;27869;51.442;7.540;2023-05-07T15:24:37;19.10;99.90
42201;DHT22;27869;51.442;7.540;2023-05-07T15:27:04;19.10;99.90
42201;DHT22;27869;51.442;7.540;2023-05-07T15:29:31;19.10;99.90
42201;DHT22;27869;51.442;7.540;2023-05-07T15:31:59;19.00;99.90
42201;DHT22;27869;51.442;7.540;2023-05-07T15:34:26;19.00;99.90
42201;DHT22;27869;51.442;7.540;2023-05-07T15:36:55;19.00;99.90
42201;DHT22;27869;51.442;7.540;2023-05-07T15:39:24;19.00;99.90